sensor_id;sensor_type;location;lat;lon;timestamp;P1;durP1;ratioP1;P2;durP2;ratioP2
82920;SDS011;72696;52.372;9.722;2024-01-15T00:01:53;11.48;;;7.32;;
82920;SDS011;72696;52.372;9.722;2024-01-15T00:04:18;13.45;;;7.22;;
82920;SDS011;72696;52.372;9.722;2024-01-15T00:06:44;10.93;;;6.30;;
82920;SDS011;72696;52.372;9.722;2024-01-15T00:09:09;12.32;;;6.88;;
82920;SDS011;72696;52.372;9.722;2024-01-15T00:11:35;12.40;;;6.90;;
82920;SDS011;72696;52.372;9.722;2024-01-15T00:14:00;10.23;;;5.80;;
82920;SDS011;72696;52.372;9.722;2024-01-15T00:16:25;13.77;;;6.10;;
82920;SDS011;72696;52.372;9.722;2024-01-15T00:18:51;8.93;;;5.88;;
82920;SDS011;72696;52.372;9.722;2024-01-15T00:21:16;9.80;;;6.13;;
82920;SDS011;72696;52.372;9.722;2024-01-15T00:23:42;10.95;;;5.85;;
82920;SDS011;72696;52.372;9.722;2024-01-15T00:26:09;11.93;;;5.63;;
82920;SDS011;72696;52.372;9.722;2024-01-15T00:28:34;10.30;;;5.55;;
82920;SDS011;72696;52.372;9.722;2024-01-15T00:31:01;10.45;;;5.68;;
82920;SDS011;72696;52.372;9.722;2024-01-15T00:33:26;10.70;;;5.85;;
82920;SDS011;72696;52.372;9.722;2024-01-15T00:35:51;10.88;;;5.50;;
82920;SDS011;72696;52.372;9.722;2024-01-15T00:38:17;11.38;;;6.32;;
82920;SDS011;72696;52.372;9.722;2024-01-15T00:40:42;10.70;;;6.63;;
82920;SDS011;72696;52.372;9.722;2024-01-15T00:43:08;12.10;;;5.35;;
82920;SDS011;72696;52.372;9.722;2024-01-15T00:45:33;10.02;;;5.47;;
82920;SDS011;72696;52.372;9.722;2024-01-15T00:47:58;10.55;;;5.18;;
82920;SDS011;72696;52.372;9.722;2024-01-15T00:50:26;10.15;;;5.40;;
82920;SDS011;72696;52.372;9.722;2024-01-15T00:52:51;10.38;;;5.30;;
82920;SDS011;72696;52.372;9.722;2024-01-15T00:55:16;10.70;;;5.20;;
82920;SDS011;72696;52.372;9.722;2024-01-15T00:57:42;9.75;;;5.50;;
82920;SDS011;72696;52.372;9.722;2024-01-15T01:00:07;7.75;;;5.05;;
82920;SDS011;72696;52.372;9.722;2024-01-15T01:02:34;8.48;;;4.80;;
82920;SDS011;72696;52.372;9.722;2024-01-15T01:04:59;9.02;;;4.95;;
82920;SDS011;72696;52.372;9.722;2024-01-15T01:07:24;7.95;;;5.07;;
82920;SDS011;72696;52.372;9.722;2024-01-15T01:09:50;7.80;;;4.43;;
82920;SDS011;72696;52.372;9.722;2024-01-15T01:12:16;9.27;;;5.82;;
82920;SDS011;72696;52.372;9.722;2024-01-15T01:14:41;10.15;;;4.72;;
82920;SDS011;72696;52.372;9.722;2024-01-15T01:17:07;8.02;;;4.43;;
82920;SDS011;72696;52.372;9.722;2024-01-15T01:19:32;9.15;;;5.00;;
82920;SDS011;72696;52.372;9.722;2024-01-15T01:21:57;8.30;;;4.60;;
82920;SDS011;72696;52.372;9.722;2024-01-15T01:24:23;8.57;;;4.22;;
82920;SDS011;72696;52.372;9.722;2024-01-15T01:26:48;9.85;;;3.90;;
82920;SDS011;72696;52.372;9.722;2024-01-15T01:29:14;7.57;;;3.85;;
82920;SDS011;72696;52.372;9.722;2024-01-15T01:31:45;7.43;;;3.78;;
82920;SDS011;72696;52.372;9.722;2024-01-15T01:34:13;6.78;;;3.30;;
82920;SDS011;72696;52.372;9.722;2024-01-15T01:36:39;7.15;;;3.30;;
82920;SDS011;72696;52.372;9.722;2024-01-15T01:39:04;8.05;;;3.42;;
82920;SDS011;72696;52.372;9.722;2024-01-15T01:41:30;8.10;;;3.47;;
82920;SDS011;72696;52.372;9.722;2024-01-15T01:43:55;9.32;;;3.40;;
82920;SDS011;72696;52.372;9.722;2024-01-15T01:46:21;7.60;;;3.33;;
82920;SDS011;72696;52.372;9.722;2024-01-15T01:48:46;5.82;;;2.63;;
82920;SDS011;72696;52.372;9.722;2024-01-15T01:51:11;8.13;;;2.95;;
82920;SDS011;72696;52.372;9.722;2024-01-15T01:53:38;6.57;;;2.88;;
82920;SDS011;72696;52.372;9.722;2024-01-15T01:56:04;5.25;;;2.42;;
82920;SDS011;72696;52.372;9.722;2024-01-15T01:58:29;8.50;;;3.15;;
82920;SDS011;72696;52.372;9.722;2024-01-15T02:00:55;3.65;;;2.30;;
82920;SDS011;72696;52.372;9.722;2024-01-15T02:03:21;7.07;;;2.72;;
82920;SDS011;72696;52.372;9.722;2024-01-15T02:05:47;12.38;;;3.72;;
82920;SDS011;72696;52.372;9.722;2024-01-15T02:08:14;7.40;;;3.22;;
82920;SDS011;72696;52.372;9.722;2024-01-15T02:10:40;7.55;;;3.00;;
82920;SDS011;72696;52.372;9.722;2024-01-15T02:13:05;9.88;;;3.10;;
82920;SDS011;72696;52.372;9.722;2024-01-15T02:15:30;8.50;;;3.20;;
82920;SDS011;72696;52.372;9.722;2024-01-15T02:18:00;11.55;;;2.92;;
82920;SDS011;72696;52.372;9.722;2024-01-15T02:20:26;10.32;;;2.75;;
82920;SDS011;72696;52.372;9.722;2024-01-15T02:22:51;9.02;;;3.10;;
82920;SDS011;72696;52.372;9.722;2024-01-15T02:25:17;6.32;;;2.92;;
82920;SDS011;72696;52.372;9.722;2024-01-15T02:27:43;8.65;;;2.60;;
82920;SDS011;72696;52.372;9.722;2024-01-15T02:30:09;9.45;;;2.67;;
82920;SDS011;72696;52.372;9.722;2024-01-15T02:32:36;4.90;;;2.40;;
82920;SDS011;72696;52.372;9.722;2024-01-15T02:35:01;11.25;;;3.28;;
82920;SDS011;72696;52.372;9.722;2024-01-15T02:37:27;8.10;;;2.58;;
82920;SDS011;72696;52.372;9.722;2024-01-15T02:39:52;4.10;;;2.53;;
82920;SDS011;72696;52.372;9.722;2024-01-15T02:42:17;5.15;;;3.05;;
82920;SDS011;72696;52.372;9.722;2024-01-15T02:44:43;6.10;;;2.35;;
82920;SDS011;72696;52.372;9.722;2024-01-15T02:47:08;8.07;;;2.70;;
82920;SDS011;72696;52.372;9.722;2024-01-15T02:49:34;5.05;;;2.35;;
82920;SDS011;72696;52.372;9.722;2024-01-15T02:51:59;5.05;;;2.60;;
82920;SDS011;72696;52.372;9.722;2024-01-15T02:54:24;5.65;;;2.58;;
82920;SDS011;72696;52.372;9.722;2024-01-15T02:56:50;6.25;;;2.30;;
82920;SDS011;72696;52.372;9.722;2024-01-15T02:59:15;8.98;;;2.78;;
82920;SDS011;72696;52.372;9.722;2024-01-15T03:01:40;8.95;;;2.30;;
82920;SDS011;72696;52.372;9.722;2024-01-15T03:04:06;3.65;;;2.17;;
82920;SDS011;72696;52.372;9.722;2024-01-15T03:06:31;5.38;;;2.40;;
82920;SDS011;72696;52.372;9.722;2024-01-15T03:08:56;3.42;;;1.90;;
82920;SDS011;72696;52.372;9.722;2024-01-15T03:11:22;5.78;;;1.90;;
82920;SDS011;72696;52.372;9.722;2024-01-15T03:13:47;7.18;;;2.33;;
82920;SDS011;72696;52.372;9.722;2024-01-15T03:16:12;12.18;;;3.03;;
82920;SDS011;72696;52.372;9.722;2024-01-15T03:18:38;4.05;;;2.05;;
82920;SDS011;72696;52.372;9.722;2024-01-15T03:21:04;5.90;;;1.83;;
82920;SDS011;72696;52.372;9.722;2024-01-15T03:23:30;8.70;;;2.00;;
82920;SDS011;72696;52.372;9.722;2024-01-15T03:25:55;7.45;;;2.30;;
82920;SDS011;72696;52.372;9.722;2024-01-15T03:28:20;5.80;;;1.92;;
82920;SDS011;72696;52.372;9.722;2024-01-15T03:30:46;5.97;;;1.75;;
82920;SDS011;72696;52.372;9.722;2024-01-15T03:33:11;5.80;;;1.85;;
82920;SDS011;72696;52.372;9.722;2024-01-15T03:35:37;5.85;;;2.08;;
82920;SDS011;72696;52.372;9.722;2024-01-15T03:38:02;5.38;;;1.92;;
82920;SDS011;72696;52.372;9.722;2024-01-15T03:40:27;5.65;;;1.75;;
82920;SDS011;72696;52.372;9.722;2024-01-15T03:42:53;7.68;;;1.65;;
82920;SDS011;72696;52.372;9.722;2024-01-15T03:45:19;5.78;;;2.28;;
82920;SDS011;72696;52.372;9.722;2024-01-15T03:47:44;7.40;;;1.95;;
82920;SDS011;72696;52.372;9.722;2024-01-15T03:50:09;4.97;;;1.92;;
82920;SDS011;72696;52.372;9.722;2024-01-15T03:52:35;5.55;;;2.17;;
82920;SDS011;72696;52.372;9.722;2024-01-15T03:55:00;4.10;;;1.45;;
82920;SDS011;72696;52.372;9.722;2024-01-15T03:57:25;7.03;;;1.98;;
82920;SDS011;72696;52.372;9.722;2024-01-15T03:59:51;8.32;;;2.05;;
82920;SDS011;72696;52.372;9.722;2024-01-15T04:02:17;3.25;;;2.10;;
82920;SDS011;72696;52.372;9.722;2024-01-15T04:04:42;8.48;;;2.25;;
82920;SDS011;72696;52.372;9.722;2024-01-15T04:07:08;8.00;;;2.58;;
82920;SDS011;72696;52.372;9.722;2024-01-15T04:09:34;5.75;;;2.50;;
82920;SDS011;72696;52.372;9.722;2024-01-15T04:12:00;7.22;;;1.92;;
82920;SDS011;72696;52.372;9.722;2024-01-15T04:14:25;3.25;;;1.67;;
82920;SDS011;72696;52.372;9.722;2024-01-15T04:16:50;7.68;;;2.15;;
82920;SDS011;72696;52.372;9.722;2024-01-15T04:19:16;3.33;;;1.90;;
82920;SDS011;72696;52.372;9.722;2024-01-15T04:21:41;11.15;;;2.50;;
82920;SDS011;72696;52.372;9.722;2024-01-15T04:24:06;6.47;;;2.00;;
82920;SDS011;72696;52.372;9.722;2024-01-15T04:26:32;4.90;;;1.83;;
82920;SDS011;72696;52.372;9.722;2024-01-15T04:28:57;6.45;;;2.00;;
82920;SDS011;72696;52.372;9.722;2024-01-15T04:31:24;3.88;;;1.73;;
82920;SDS011;72696;52.372;9.722;2024-01-15T04:33:50;8.23;;;2.22;;
82920;SDS011;72696;52.372;9.722;2024-01-15T04:36:15;6.70;;;2.15;;
82920;SDS011;72696;52.372;9.722;2024-01-15T04:38:40;5.22;;;1.73;;
82920;SDS011;72696;52.372;9.722;2024-01-15T04:41:06;3.25;;;1.80;;
82920;SDS011;72696;52.372;9.722;2024-01-15T04:43:31;3.70;;;1.80;;
82920;SDS011;72696;52.372;9.722;2024-01-15T04:45:57;5.70;;;1.95;;
82920;SDS011;72696;52.372;9.722;2024-01-15T04:48:22;4.75;;;1.90;;
82920;SDS011;72696;52.372;9.722;2024-01-15T04:50:48;4.43;;;1.70;;
82920;SDS011;72696;52.372;9.722;2024-01-15T04:53:13;6.40;;;1.50;;
82920;SDS011;72696;52.372;9.722;2024-01-15T04:55:39;3.20;;;2.28;;
82920;SDS011;72696;52.372;9.722;2024-01-15T04:58:04;7.43;;;2.08;;
82920;SDS011;72696;52.372;9.722;2024-01-15T05:00:29;5.60;;;2.28;;
82920;SDS011;72696;52.372;9.722;2024-01-15T05:02:55;7.07;;;1.95;;
82920;SDS011;72696;52.372;9.722;2024-01-15T05:05:21;3.67;;;1.98;;
82920;SDS011;72696;52.372;9.722;2024-01-15T05:07:46;3.45;;;1.83;;
82920;SDS011;72696;52.372;9.722;2024-01-15T05:10:11;2.47;;;1.55;;
82920;SDS011;72696;52.372;9.722;2024-01-15T05:12:37;6.55;;;1.88;;
82920;SDS011;72696;52.372;9.722;2024-01-15T05:15:03;6.45;;;1.95;;
82920;SDS011;72696;52.372;9.722;2024-01-15T05:17:28;5.60;;;1.73;;
82920;SDS011;72696;52.372;9.722;2024-01-15T05:19:54;5.20;;;1.90;;
82920;SDS011;72696;52.372;9.722;2024-01-15T05:22:19;6.97;;;2.20;;
82920;SDS011;72696;52.372;9.722;2024-01-15T05:24:46;6.00;;;2.20;;
82920;SDS011;72696;52.372;9.722;2024-01-15T05:27:11;7.35;;;2.13;;
82920;SDS011;72696;52.372;9.722;2024-01-15T05:29:36;4.20;;;2.08;;
82920;SDS011;72696;52.372;9.722;2024-01-15T05:32:02;5.53;;;2.30;;
82920;SDS011;72696;52.372;9.722;2024-01-15T05:34:27;4.95;;;2.00;;
82920;SDS011;72696;52.372;9.722;2024-01-15T05:36:53;5.63;;;1.90;;
82920;SDS011;72696;52.372;9.722;2024-01-15T05:39:18;2.63;;;1.50;;
82920;SDS011;72696;52.372;9.722;2024-01-15T05:41:43;3.95;;;1.75;;
82920;SDS011;72696;52.372;9.722;2024-01-15T05:44:09;6.18;;;1.90;;
82920;SDS011;72696;52.372;9.722;2024-01-15T05:46:35;5.00;;;1.80;;
82920;SDS011;72696;52.372;9.722;2024-01-15T05:49:00;5.10;;;2.15;;
82920;SDS011;72696;52.372;9.722;2024-01-15T05:51:25;5.93;;;1.70;;
82920;SDS011;72696;52.372;9.722;2024-01-15T05:53:51;4.32;;;1.88;;
82920;SDS011;72696;52.372;9.722;2024-01-15T05:56:16;6.32;;;2.00;;
82920;SDS011;72696;52.372;9.722;2024-01-15T05:58:42;6.25;;;1.77;;
82920;SDS011;72696;52.372;9.722;2024-01-15T06:01:07;8.27;;;2.15;;
82920;SDS011;72696;52.372;9.722;2024-01-15T06:03:32;4.38;;;1.95;;
82920;SDS011;72696;52.372;9.722;2024-01-15T06:05:58;5.20;;;1.92;;
82920;SDS011;72696;52.372;9.722;2024-01-15T06:08:23;5.22;;;2.45;;
82920;SDS011;72696;52.372;9.722;2024-01-15T06:10:48;2.95;;;1.90;;
82920;SDS011;72696;52.372;9.722;2024-01-15T06:13:14;6.45;;;1.92;;
82920;SDS011;72696;52.372;9.722;2024-01-15T06:15:39;2.78;;;1.63;;
82920;SDS011;72696;52.372;9.722;2024-01-15T06:18:05;4.28;;;2.00;;
82920;SDS011;72696;52.372;9.722;2024-01-15T06:20:30;4.60;;;1.83;;
82920;SDS011;72696;52.372;9.722;2024-01-15T06:22:56;4.45;;;2.20;;
82920;SDS011;72696;52.372;9.722;2024-01-15T06:25:21;5.82;;;2.42;;
82920;SDS011;72696;52.372;9.722;2024-01-15T06:27:46;5.03;;;2.00;;
82920;SDS011;72696;52.372;9.722;2024-01-15T06:30:12;6.88;;;2.30;;
82920;SDS011;72696;52.372;9.722;2024-01-15T06:32:38;6.07;;;2.20;;
82920;SDS011;72696;52.372;9.722;2024-01-15T06:35:03;6.95;;;2.30;;
82920;SDS011;72696;52.372;9.722;2024-01-15T06:37:29;7.45;;;2.20;;
82920;SDS011;72696;52.372;9.722;2024-01-15T06:39:54;4.53;;;1.95;;
82920;SDS011;72696;52.372;9.722;2024-01-15T06:42:20;7.53;;;2.40;;
82920;SDS011;72696;52.372;9.722;2024-01-15T06:44:47;8.52;;;2.28;;
82920;SDS011;72696;52.372;9.722;2024-01-15T06:47:12;4.85;;;2.38;;
82920;SDS011;72696;52.372;9.722;2024-01-15T06:49:37;8.15;;;3.17;;
82920;SDS011;72696;52.372;9.722;2024-01-15T06:52:03;8.27;;;3.78;;
82920;SDS011;72696;52.372;9.722;2024-01-15T06:54:28;8.60;;;4.85;;
82920;SDS011;72696;52.372;9.722;2024-01-15T06:56:54;11.38;;;5.57;;
82920;SDS011;72696;52.372;9.722;2024-01-15T06:59:19;8.60;;;3.88;;
82920;SDS011;72696;52.372;9.722;2024-01-15T07:01:44;5.47;;;2.60;;
82920;SDS011;72696;52.372;9.722;2024-01-15T07:04:10;8.23;;;2.38;;
82920;SDS011;72696;52.372;9.722;2024-01-15T07:06:35;7.50;;;2.60;;
82920;SDS011;72696;52.372;9.722;2024-01-15T07:09:00;3.25;;;2.10;;
82920;SDS011;72696;52.372;9.722;2024-01-15T07:11:26;4.47;;;2.25;;
82920;SDS011;72696;52.372;9.722;2024-01-15T07:13:51;4.75;;;2.60;;
82920;SDS011;72696;52.372;9.722;2024-01-15T07:16:16;4.80;;;2.28;;
82920;SDS011;72696;52.372;9.722;2024-01-15T07:18:42;6.00;;;2.42;;
82920;SDS011;72696;52.372;9.722;2024-01-15T07:21:07;6.82;;;2.53;;
82920;SDS011;72696;52.372;9.722;2024-01-15T07:23:32;8.13;;;2.95;;
82920;SDS011;72696;52.372;9.722;2024-01-15T07:25:58;5.03;;;2.60;;
82920;SDS011;72696;52.372;9.722;2024-01-15T07:28:23;3.58;;;2.58;;
82920;SDS011;72696;52.372;9.722;2024-01-15T07:30:49;8.65;;;2.60;;
82920;SDS011;72696;52.372;9.722;2024-01-15T07:33:14;4.85;;;2.05;;
82920;SDS011;72696;52.372;9.722;2024-01-15T07:35:39;4.65;;;2.50;;
82920;SDS011;72696;52.372;9.722;2024-01-15T07:38:05;4.15;;;2.47;;
82920;SDS011;72696;52.372;9.722;2024-01-15T07:40:30;5.65;;;2.60;;
82920;SDS011;72696;52.372;9.722;2024-01-15T07:42:55;6.45;;;2.60;;
82920;SDS011;72696;52.372;9.722;2024-01-15T07:45:21;8.85;;;2.90;;
82920;SDS011;72696;52.372;9.722;2024-01-15T07:47:46;5.50;;;2.50;;
82920;SDS011;72696;52.372;9.722;2024-01-15T07:50:12;4.57;;;2.58;;
82920;SDS011;72696;52.372;9.722;2024-01-15T07:52:37;5.13;;;2.60;;
82920;SDS011;72696;52.372;9.722;2024-01-15T07:55:03;3.33;;;2.13;;
82920;SDS011;72696;52.372;9.722;2024-01-15T07:57:30;7.30;;;3.00;;
82920;SDS011;72696;52.372;9.722;2024-01-15T07:59:55;3.58;;;2.38;;
82920;SDS011;72696;52.372;9.722;2024-01-15T08:02:21;5.72;;;2.30;;
82920;SDS011;72696;52.372;9.722;2024-01-15T08:04:46;9.38;;;2.78;;
82920;SDS011;72696;52.372;9.722;2024-01-15T08:07:12;5.68;;;2.65;;
82920;SDS011;72696;52.372;9.722;2024-01-15T08:09:38;4.88;;;2.70;;
82920;SDS011;72696;52.372;9.722;2024-01-15T08:12:03;9.43;;;2.70;;
82920;SDS011;72696;52.372;9.722;2024-01-15T08:14:31;5.38;;;2.20;;
82920;SDS011;72696;52.372;9.722;2024-01-15T08:16:56;5.28;;;2.55;;
82920;SDS011;72696;52.372;9.722;2024-01-15T08:19:21;4.00;;;2.78;;
82920;SDS011;72696;52.372;9.722;2024-01-15T08:21:47;8.65;;;2.83;;
82920;SDS011;72696;52.372;9.722;2024-01-15T08:24:12;5.78;;;2.70;;
82920;SDS011;72696;52.372;9.722;2024-01-15T08:26:37;4.50;;;2.80;;
82920;SDS011;72696;52.372;9.722;2024-01-15T08:29:03;3.28;;;2.38;;
82920;SDS011;72696;52.372;9.722;2024-01-15T08:31:28;4.72;;;2.40;;
82920;SDS011;72696;52.372;9.722;2024-01-15T08:33:53;4.65;;;2.45;;
82920;SDS011;72696;52.372;9.722;2024-01-15T08:36:21;5.15;;;2.60;;
82920;SDS011;72696;52.372;9.722;2024-01-15T08:38:46;3.97;;;2.60;;
82920;SDS011;72696;52.372;9.722;2024-01-15T08:41:12;5.78;;;2.45;;
82920;SDS011;72696;52.372;9.722;2024-01-15T08:43:37;4.80;;;2.42;;
82920;SDS011;72696;52.372;9.722;2024-01-15T08:46:02;7.13;;;2.42;;
82920;SDS011;72696;52.372;9.722;2024-01-15T08:48:28;3.65;;;2.17;;
82920;SDS011;72696;52.372;9.722;2024-01-15T08:50:54;5.18;;;2.30;;
82920;SDS011;72696;52.372;9.722;2024-01-15T08:53:20;3.63;;;2.00;;
82920;SDS011;72696;52.372;9.722;2024-01-15T08:55:45;5.22;;;2.45;;
82920;SDS011;72696;52.372;9.722;2024-01-15T08:58:11;4.10;;;2.40;;
82920;SDS011;72696;52.372;9.722;2024-01-15T09:00:36;3.53;;;2.30;;
82920;SDS011;72696;52.372;9.722;2024-01-15T09:03:02;4.60;;;2.47;;
82920;SDS011;72696;52.372;9.722;2024-01-15T09:05:27;4.85;;;2.20;;
82920;SDS011;72696;52.372;9.722;2024-01-15T09:07:54;6.18;;;2.85;;
82920;SDS011;72696;52.372;9.722;2024-01-15T09:10:19;4.55;;;2.40;;
82920;SDS011;72696;52.372;9.722;2024-01-15T09:12:45;5.63;;;2.58;;
82920;SDS011;72696;52.372;9.722;2024-01-15T09:15:10;6.78;;;2.60;;
82920;SDS011;72696;52.372;9.722;2024-01-15T09:17:36;5.38;;;2.00;;
82920;SDS011;72696;52.372;9.722;2024-01-15T09:20:01;4.85;;;2.67;;
82920;SDS011;72696;52.372;9.722;2024-01-15T09:22:29;5.25;;;2.00;;
82920;SDS011;72696;52.372;9.722;2024-01-15T09:24:54;7.90;;;2.78;;
82920;SDS011;72696;52.372;9.722;2024-01-15T09:27:19;5.45;;;2.15;;
82920;SDS011;72696;52.372;9.722;2024-01-15T09:29:45;3.97;;;2.58;;
82920;SDS011;72696;52.372;9.722;2024-01-15T09:32:11;7.13;;;2.60;;
82920;SDS011;72696;52.372;9.722;2024-01-15T09:34:37;6.07;;;2.40;;
82920;SDS011;72696;52.372;9.722;2024-01-15T09:37:03;4.55;;;2.30;;
82920;SDS011;72696;52.372;9.722;2024-01-15T09:39:29;4.07;;;2.90;;
82920;SDS011;72696;52.372;9.722;2024-01-15T09:41:55;5.70;;;2.92;;
82920;SDS011;72696;52.372;9.722;2024-01-15T09:44:21;8.13;;;2.58;;
82920;SDS011;72696;52.372;9.722;2024-01-15T09:46:46;5.07;;;2.60;;
82920;SDS011;72696;52.372;9.722;2024-01-15T09:49:15;7.60;;;2.85;;
82920;SDS011;72696;52.372;9.722;2024-01-15T09:51:41;4.43;;;2.97;;
82920;SDS011;72696;52.372;9.722;2024-01-15T09:54:07;4.82;;;2.88;;
82920;SDS011;72696;52.372;9.722;2024-01-15T09:56:33;6.22;;;2.60;;
82920;SDS011;72696;52.372;9.722;2024-01-15T09:58:59;5.97;;;2.80;;
82920;SDS011;72696;52.372;9.722;2024-01-15T10:01:25;5.40;;;3.30;;
82920;SDS011;72696;52.372;9.722;2024-01-15T10:03:50;7.05;;;2.88;;
82920;SDS011;72696;52.372;9.722;2024-01-15T10:06:16;5.68;;;2.50;;
82920;SDS011;72696;52.372;9.722;2024-01-15T10:08:42;3.88;;;2.33;;
82920;SDS011;72696;52.372;9.722;2024-01-15T10:11:09;2.95;;;2.40;;
82920;SDS011;72696;52.372;9.722;2024-01-15T10:13:34;2.90;;;2.35;;
82920;SDS011;72696;52.372;9.722;2024-01-15T10:16:00;4.97;;;2.30;;
82920;SDS011;72696;52.372;9.722;2024-01-15T10:18:28;4.10;;;2.45;;
82920;SDS011;72696;52.372;9.722;2024-01-15T10:20:53;2.60;;;1.90;;
82920;SDS011;72696;52.372;9.722;2024-01-15T10:23:18;4.10;;;2.50;;
82920;SDS011;72696;52.372;9.722;2024-01-15T10:25:44;4.50;;;2.58;;
82920;SDS011;72696;52.372;9.722;2024-01-15T10:28:09;2.58;;;1.92;;
82920;SDS011;72696;52.372;9.722;2024-01-15T10:30:35;4.15;;;2.35;;
82920;SDS011;72696;52.372;9.722;2024-01-15T10:33:01;5.10;;;2.25;;
82920;SDS011;72696;52.372;9.722;2024-01-15T10:35:27;3.13;;;2.30;;
82920;SDS011;72696;52.372;9.722;2024-01-15T10:37:54;4.18;;;2.30;;
82920;SDS011;72696;52.372;9.722;2024-01-15T10:40:19;4.75;;;2.30;;
82920;SDS011;72696;52.372;9.722;2024-01-15T10:42:45;3.78;;;2.47;;
82920;SDS011;72696;52.372;9.722;2024-01-15T10:45:12;5.32;;;2.60;;
82920;SDS011;72696;52.372;9.722;2024-01-15T10:47:38;4.90;;;2.40;;
82920;SDS011;72696;52.372;9.722;2024-01-15T10:50:04;2.90;;;1.90;;
82920;SDS011;72696;52.372;9.722;2024-01-15T10:52:31;3.03;;;2.30;;
82920;SDS011;72696;52.372;9.722;2024-01-15T10:54:57;5.63;;;2.10;;
82920;SDS011;72696;52.372;9.722;2024-01-15T10:57:23;6.38;;;2.20;;
82920;SDS011;72696;52.372;9.722;2024-01-15T10:59:49;3.25;;;1.90;;
82920;SDS011;72696;52.372;9.722;2024-01-15T11:02:14;5.35;;;2.10;;
82920;SDS011;72696;52.372;9.722;2024-01-15T11:04:40;3.20;;;1.90;;
82920;SDS011;72696;52.372;9.722;2024-01-15T11:07:05;4.85;;;1.83;;
82920;SDS011;72696;52.372;9.722;2024-01-15T11:09:31;4.45;;;2.17;;
82920;SDS011;72696;52.372;9.722;2024-01-15T11:12:07;3.05;;;2.10;;
82920;SDS011;72696;52.372;9.722;2024-01-15T11:14:40;3.72;;;2.08;;
82920;SDS011;72696;52.372;9.722;2024-01-15T11:17:08;6.60;;;1.85;;
82920;SDS011;72696;52.372;9.722;2024-01-15T11:19:35;3.20;;;2.35;;
82920;SDS011;72696;52.372;9.722;2024-01-15T11:24:52;6.63;;;2.38;;
82920;SDS011;72696;52.372;9.722;2024-01-15T11:27:17;2.67;;;1.75;;
82920;SDS011;72696;52.372;9.722;2024-01-15T11:30:09;5.78;;;1.77;;
82920;SDS011;72696;52.372;9.722;2024-01-15T11:32:35;4.15;;;1.83;;
82920;SDS011;72696;52.372;9.722;2024-01-15T11:35:01;7.15;;;2.20;;
82920;SDS011;72696;52.372;9.722;2024-01-15T11:37:28;4.05;;;1.88;;
82920;SDS011;72696;52.372;9.722;2024-01-15T11:39:55;4.63;;;2.10;;
82920;SDS011;72696;52.372;9.722;2024-01-15T11:42:25;4.43;;;2.38;;
82920;SDS011;72696;52.372;9.722;2024-01-15T11:44:50;2.92;;;2.10;;
82920;SDS011;72696;52.372;9.722;2024-01-15T11:47:15;5.22;;;2.40;;
82920;SDS011;72696;52.372;9.722;2024-01-15T11:52:30;7.60;;;2.45;;
82920;SDS011;72696;52.372;9.722;2024-01-15T11:57:53;5.13;;;2.47;;
82920;SDS011;72696;52.372;9.722;2024-01-15T12:00:22;5.05;;;2.28;;
82920;SDS011;72696;52.372;9.722;2024-01-15T12:02:48;2.58;;;1.92;;
82920;SDS011;72696;52.372;9.722;2024-01-15T12:05:17;4.60;;;2.35;;
82920;SDS011;72696;52.372;9.722;2024-01-15T12:07:44;6.85;;;2.20;;
82920;SDS011;72696;52.372;9.722;2024-01-15T12:10:14;3.70;;;2.20;;
82920;SDS011;72696;52.372;9.722;2024-01-15T12:15:12;6.10;;;2.45;;
82920;SDS011;72696;52.372;9.722;2024-01-15T12:17:38;2.85;;;2.45;;
82920;SDS011;72696;52.372;9.722;2024-01-15T12:20:04;6.75;;;2.30;;
82920;SDS011;72696;52.372;9.722;2024-01-15T12:22:29;4.63;;;1.80;;
82920;SDS011;72696;52.372;9.722;2024-01-15T12:24:55;3.38;;;2.00;;
82920;SDS011;72696;52.372;9.722;2024-01-15T12:27:20;3.10;;;2.00;;
82920;SDS011;72696;52.372;9.722;2024-01-15T12:29:46;5.32;;;2.58;;
82920;SDS011;72696;52.372;9.722;2024-01-15T12:32:12;7.03;;;2.28;;
82920;SDS011;72696;52.372;9.722;2024-01-15T12:34:37;6.40;;;3.33;;
82920;SDS011;72696;52.372;9.722;2024-01-15T12:37:03;6.20;;;2.10;;
82920;SDS011;72696;52.372;9.722;2024-01-15T12:39:28;3.33;;;1.90;;
82920;SDS011;72696;52.372;9.722;2024-01-15T12:41:54;4.68;;;1.95;;
82920;SDS011;72696;52.372;9.722;2024-01-15T12:44:19;8.98;;;2.35;;
82920;SDS011;72696;52.372;9.722;2024-01-15T12:46:45;3.85;;;2.38;;
82920;SDS011;72696;52.372;9.722;2024-01-15T12:49:10;7.07;;;1.90;;
82920;SDS011;72696;52.372;9.722;2024-01-15T12:51:35;6.70;;;2.55;;
82920;SDS011;72696;52.372;9.722;2024-01-15T12:54:01;4.93;;;1.95;;
82920;SDS011;72696;52.372;9.722;2024-01-15T12:56:26;3.47;;;2.00;;
82920;SDS011;72696;52.372;9.722;2024-01-15T12:58:51;4.45;;;2.45;;
82920;SDS011;72696;52.372;9.722;2024-01-15T13:01:17;4.90;;;2.10;;
82920;SDS011;72696;52.372;9.722;2024-01-15T13:03:42;4.38;;;1.92;;
82920;SDS011;72696;52.372;9.722;2024-01-15T13:06:07;4.72;;;2.00;;
82920;SDS011;72696;52.372;9.722;2024-01-15T13:08:33;7.90;;;2.10;;
82920;SDS011;72696;52.372;9.722;2024-01-15T13:10:58;3.40;;;1.98;;
82920;SDS011;72696;52.372;9.722;2024-01-15T13:13:24;5.20;;;2.15;;
82920;SDS011;72696;52.372;9.722;2024-01-15T13:15:49;3.95;;;1.80;;
82920;SDS011;72696;52.372;9.722;2024-01-15T13:18:14;3.78;;;2.00;;
82920;SDS011;72696;52.372;9.722;2024-01-15T13:20:40;4.47;;;1.88;;
82920;SDS011;72696;52.372;9.722;2024-01-15T13:23:05;4.53;;;2.17;;
82920;SDS011;72696;52.372;9.722;2024-01-15T13:25:31;5.15;;;2.20;;
82920;SDS011;72696;52.372;9.722;2024-01-15T13:27:57;7.35;;;2.15;;
82920;SDS011;72696;52.372;9.722;2024-01-15T13:30:22;2.80;;;1.80;;
82920;SDS011;72696;52.372;9.722;2024-01-15T13:32:47;3.90;;;1.90;;
82920;SDS011;72696;52.372;9.722;2024-01-15T13:35:13;4.88;;;2.00;;
82920;SDS011;72696;52.372;9.722;2024-01-15T13:37:39;5.57;;;2.00;;
82920;SDS011;72696;52.372;9.722;2024-01-15T13:40:06;6.97;;;2.00;;
82920;SDS011;72696;52.372;9.722;2024-01-15T13:42:34;3.70;;;2.15;;
82920;SDS011;72696;52.372;9.722;2024-01-15T13:44:59;4.88;;;2.05;;
82920;SDS011;72696;52.372;9.722;2024-01-15T13:47:25;4.55;;;1.83;;
82920;SDS011;72696;52.372;9.722;2024-01-15T13:49:50;4.82;;;2.05;;
82920;SDS011;72696;52.372;9.722;2024-01-15T13:52:15;5.55;;;2.17;;
82920;SDS011;72696;52.372;9.722;2024-01-15T13:54:41;6.95;;;2.03;;
82920;SDS011;72696;52.372;9.722;2024-01-15T13:57:07;5.72;;;2.28;;
82920;SDS011;72696;52.372;9.722;2024-01-15T13:59:32;2.97;;;2.15;;
82920;SDS011;72696;52.372;9.722;2024-01-15T14:01:57;4.78;;;1.85;;
82920;SDS011;72696;52.372;9.722;2024-01-15T14:04:23;4.07;;;2.00;;
82920;SDS011;72696;52.372;9.722;2024-01-15T14:06:48;7.63;;;2.42;;
82920;SDS011;72696;52.372;9.722;2024-01-15T14:09:13;3.47;;;2.17;;
82920;SDS011;72696;52.372;9.722;2024-01-15T14:11:39;4.53;;;1.98;;
82920;SDS011;72696;52.372;9.722;2024-01-15T14:14:05;3.25;;;2.10;;
82920;SDS011;72696;52.372;9.722;2024-01-15T14:16:30;6.97;;;2.10;;
82920;SDS011;72696;52.372;9.722;2024-01-15T14:18:55;7.60;;;2.30;;
82920;SDS011;72696;52.372;9.722;2024-01-15T14:21:21;6.40;;;2.33;;
82920;SDS011;72696;52.372;9.722;2024-01-15T14:23:46;4.03;;;2.38;;
82920;SDS011;72696;52.372;9.722;2024-01-15T14:26:12;3.08;;;2.20;;
82920;SDS011;72696;52.372;9.722;2024-01-15T14:28:37;4.13;;;2.13;;
82920;SDS011;72696;52.372;9.722;2024-01-15T14:31:03;4.93;;;2.58;;
82920;SDS011;72696;52.372;9.722;2024-01-15T14:33:30;3.42;;;2.00;;
82920;SDS011;72696;52.372;9.722;2024-01-15T14:35:56;3.67;;;1.80;;
82920;SDS011;72696;52.372;9.722;2024-01-15T14:38:22;5.05;;;2.00;;
82920;SDS011;72696;52.372;9.722;2024-01-15T14:40:48;3.42;;;2.22;;
82920;SDS011;72696;52.372;9.722;2024-01-15T14:43:14;6.00;;;2.45;;
82920;SDS011;72696;52.372;9.722;2024-01-15T14:45:39;4.38;;;2.35;;
82920;SDS011;72696;52.372;9.722;2024-01-15T14:48:05;4.68;;;2.30;;